Terminal Aerodrome Forecast
Issued by NWS Missoula, MT

Home | Current Version | Previous Version | Text Only | Print | Product List | Glossary On
Versions: 1 2 3 4 5 6 7 8 9 10 11 12 13 14 15 16
000
FTUS45 KMSO 242300
TAFGPI
TAF
KGPI 242337Z 2500/2524 23013G23KT P6SM FEW070 SCT090 BKN100
     FM250300 24010KT P6SM SCT090
     FM250900 VRB03KT P6SM SKC
     FM251700 19012G22KT P6SM FEW090
     FM252100 24015G25KT P6SM SCT080=

USA.gov is the U.S. government's official web portal to all federal, state and local government web resources and services.